createdAt,value
2022-12-11T00:05:11.441Z,32.90
2022-12-11T00:15:13.244Z,32.87
2022-12-11T00:25:14.629Z,32.68
2022-12-11T00:35:16.187Z,33.00
2022-12-11T00:45:17.475Z,32.73
2022-12-11T00:55:18.753Z,33.04
2022-12-11T01:05:20.006Z,33.19
2022-12-11T01:15:21.251Z,32.99
2022-12-11T01:25:22.554Z,32.90
2022-12-11T01:35:23.825Z,33.01
2022-12-11T01:45:27.011Z,32.78
2022-12-11T01:55:28.625Z,32.98
2022-12-11T02:05:29.911Z,32.90
2022-12-11T02:15:31.445Z,32.93
2022-12-11T02:25:32.707Z,32.91
2022-12-11T02:35:33.944Z,32.92
2022-12-11T02:45:35.227Z,32.67
2022-12-11T02:55:36.497Z,32.68
2022-12-11T03:05:37.814Z,32.86
2022-12-11T03:15:39.136Z,32.57
2022-12-11T03:25:40.395Z,32.72
2022-12-11T03:35:41.618Z,32.68
2022-12-11T03:45:42.919Z,32.68
2022-12-11T03:55:44.220Z,32.64
2022-12-11T04:05:45.471Z,32.85
2022-12-11T04:15:46.788Z,33.02
2022-12-11T04:25:48.050Z,32.59
2022-12-11T04:35:49.280Z,32.65
2022-12-11T04:45:50.492Z,32.93
2022-12-11T04:55:51.739Z,32.89
2022-12-11T05:05:53.016Z,32.83
2022-12-11T05:15:54.327Z,32.73
2022-12-11T05:25:55.664Z,32.77
2022-12-11T05:35:56.953Z,33.00
2022-12-11T05:45:58.180Z,32.81
2022-12-11T05:56:01.958Z,32.77
2022-12-11T06:06:03.212Z,32.74
2022-12-11T06:16:04.522Z,32.89
2022-12-11T06:26:05.865Z,32.92
2022-12-11T06:36:07.177Z,32.61
2022-12-11T06:46:08.612Z,32.85
2022-12-11T06:56:09.970Z,32.50
2022-12-11T07:06:11.227Z,32.86
2022-12-11T07:16:12.984Z,32.85
2022-12-11T07:26:14.296Z,32.92
2022-12-11T07:36:15.541Z,33.09
2022-12-11T07:46:16.939Z,32.87
2022-12-11T07:56:18.523Z,32.87
2022-12-11T08:06:19.907Z,33.06
2022-12-11T08:16:21.469Z,33.08
2022-12-11T08:26:23.030Z,33.16
2022-12-11T08:36:24.398Z,33.09
2022-12-11T08:46:25.717Z,33.30
2022-12-11T08:56:27.181Z,33.15
2022-12-11T09:06:28.541Z,33.06
2022-12-11T09:16:30.027Z,33.23
2022-12-11T09:26:31.547Z,33.07
2022-12-11T09:36:32.843Z,33.07
2022-12-11T09:46:34.559Z,33.27
2022-12-11T09:56:35.896Z,33.70
2022-12-11T10:06:37.317Z,33.97
2022-12-11T10:16:38.591Z,34.16
2022-12-11T10:26:39.991Z,34.34
2022-12-11T10:36:41.353Z,34.39
2022-12-11T10:46:42.761Z,34.48
2022-12-11T10:56:44.304Z,34.51
2022-12-11T11:06:48.106Z,34.40
2022-12-11T11:16:49.722Z,34.45
2022-12-11T11:27:13.979Z,34.80
2022-12-11T11:37:13.311Z,34.61
2022-12-11T11:47:14.691Z,34.75
2022-12-11T11:57:16.288Z,34.72
2022-12-11T12:07:17.798Z,34.84
2022-12-11T12:17:19.384Z,34.84
2022-12-11T12:27:50.619Z,34.87
2022-12-11T12:37:42.087Z,35.01
2022-12-11T12:47:43.326Z,34.95
2022-12-11T12:57:44.770Z,34.88
2022-12-11T13:07:49.807Z,34.83
2022-12-11T13:17:55.217Z,35.00
2022-12-11T13:27:56.711Z,34.94
2022-12-11T13:37:58.122Z,34.54
2022-12-11T13:47:59.507Z,34.59
2022-12-11T13:58:09.664Z,34.37
2022-12-11T14:08:13.920Z,34.57
2022-12-11T14:18:22.096Z,34.49
2022-12-11T14:28:30.183Z,34.25
2022-12-11T14:38:41.336Z,34.24
2022-12-11T14:48:42.726Z,34.02
2022-12-11T14:58:44.121Z,34.11
2022-12-11T15:08:45.633Z,33.82
2022-12-11T15:18:46.930Z,33.86
2022-12-11T15:28:48.329Z,33.69
2022-12-11T15:38:49.771Z,33.77
2022-12-11T15:48:52.596Z,33.61
2022-12-11T15:58:55.203Z,33.48
2022-12-11T16:08:56.670Z,33.46
2022-12-11T16:18:58.091Z,33.48
2022-12-11T16:28:59.446Z,33.32
2022-12-11T16:39:00.958Z,32.88
2022-12-11T16:49:02.306Z,32.88
2022-12-11T16:59:03.696Z,32.71
2022-12-11T17:09:05.049Z,32.63
2022-12-11T17:19:06.600Z,32.44
2022-12-11T17:29:08.033Z,32.45
2022-12-11T17:39:09.302Z,32.44
2022-12-11T17:49:10.704Z,32.57
2022-12-11T17:59:12.331Z,32.28
2022-12-11T18:09:13.641Z,32.28
2022-12-11T18:19:15.163Z,32.34
2022-12-11T18:29:16.411Z,32.30
2022-12-11T18:39:17.937Z,32.26
2022-12-11T18:49:19.231Z,32.26
2022-12-11T18:59:20.625Z,31.95
2022-12-11T19:09:22.158Z,32.18
2022-12-11T19:19:23.508Z,32.18
2022-12-11T19:29:24.900Z,31.92
2022-12-11T19:39:26.463Z,32.03
2022-12-11T19:49:27.836Z,32.19
2022-12-11T19:59:29.086Z,31.92
2022-12-11T20:09:30.659Z,32.23
2022-12-11T20:19:32.093Z,32.22
2022-12-11T20:29:33.599Z,32.24
2022-12-11T20:39:34.994Z,32.29
2022-12-11T20:49:36.287Z,32.16
2022-12-11T20:59:37.839Z,32.01
2022-12-11T21:09:39.407Z,31.89
2022-12-11T21:19:40.802Z,32.15
2022-12-11T21:29:42.057Z,32.10
2022-12-11T21:39:43.591Z,32.18
2022-12-11T21:49:44.994Z,31.92
2022-12-11T21:59:46.537Z,31.78
2022-12-11T22:09:48.436Z,32.06
2022-12-11T22:19:49.658Z,31.65
2022-12-11T22:29:51.081Z,31.45
2022-12-11T22:39:52.486Z,31.46
2022-12-11T22:49:53.854Z,31.45
2022-12-11T22:59:55.161Z,31.80
2022-12-11T23:09:56.579Z,31.88
2022-12-11T23:19:57.891Z,31.50
2022-12-11T23:29:59.177Z,31.37
2022-12-11T23:40:00.403Z,31.32
2022-12-11T23:50:01.679Z,31.43
